createdAt,value
2022-12-16T00:00:11.904Z,26.70
2022-12-16T00:02:39.283Z,26.10
2022-12-16T00:05:07.848Z,24.70
2022-12-16T00:07:35.300Z,26.38
2022-12-16T00:10:02.592Z,26.20
2022-12-16T00:12:29.843Z,26.33
2022-12-16T00:14:57.120Z,27.42
2022-12-16T00:17:24.369Z,26.83
2022-12-16T00:19:51.608Z,29.92
2022-12-16T00:22:19.467Z,28.05
2022-12-16T00:24:46.717Z,25.80
2022-12-16T00:27:13.976Z,27.67
2022-12-16T00:29:41.268Z,27.13
2022-12-16T00:32:09.958Z,27.33
2022-12-16T00:34:37.198Z,24.35
2022-12-16T00:37:04.437Z,28.38
2022-12-16T00:39:31.681Z,26.67
2022-12-16T00:41:59.118Z,28.75
2022-12-16T00:44:26.389Z,27.90
2022-12-16T00:46:53.649Z,27.80
2022-12-16T00:49:22.329Z,29.58
2022-12-16T00:51:49.724Z,31.13
2022-12-16T00:54:17.800Z,28.73
2022-12-16T00:56:45.044Z,28.38
2022-12-16T00:59:12.313Z,29.50
2022-12-16T01:01:39.642Z,28.00
2022-12-16T01:04:06.967Z,31.45
2022-12-16T01:06:34.201Z,28.95
2022-12-16T01:09:01.538Z,29.30
2022-12-16T01:11:28.778Z,31.27
2022-12-16T01:13:56.043Z,31.38
2022-12-16T01:16:23.404Z,30.70
2022-12-16T01:18:50.708Z,29.50
2022-12-16T01:21:19.058Z,31.02
2022-12-16T01:23:48.300Z,31.33
2022-12-16T01:26:17.171Z,32.95
2022-12-16T01:28:44.762Z,30.52
2022-12-16T01:31:13.152Z,29.05
2022-12-16T01:33:40.644Z,31.92
2022-12-16T01:36:08.812Z,30.08
2022-12-16T01:38:36.581Z,30.95
2022-12-16T01:41:04.421Z,30.20
2022-12-16T01:43:33.333Z,30.63
2022-12-16T01:46:13.931Z,31.40
2022-12-16T01:48:41.636Z,30.27
2022-12-16T01:51:12.661Z,32.13
2022-12-16T01:56:28.890Z,32.25
2022-12-16T01:58:57.325Z,29.33
2022-12-16T02:01:24.951Z,32.15
2022-12-16T02:03:53.777Z,30.35
2022-12-16T02:06:21.566Z,32.45
2022-12-16T02:08:53.369Z,30.52
2022-12-16T02:16:53.157Z,25.40
2022-12-16T02:19:42.546Z,25.73
2022-12-16T02:22:28.915Z,29.92
2022-12-16T02:25:11.494Z,28.77
2022-12-16T02:30:35.523Z,27.05
2022-12-16T02:33:14.557Z,32.08
2022-12-16T02:35:47.506Z,23.73
2022-12-16T02:38:23.672Z,27.90
2022-12-16T02:40:50.870Z,26.67
2022-12-16T02:46:22.089Z,26.58
2022-12-16T02:48:49.377Z,28.42
2022-12-16T02:51:17.106Z,27.27
2022-12-16T02:53:45.412Z,21.90
2022-12-16T02:56:20.937Z,24.65
2022-12-16T02:59:07.115Z,25.52
2022-12-16T03:04:45.713Z,22.77
2022-12-16T03:07:15.227Z,25.70
2022-12-16T03:09:43.188Z,17.43
2022-12-16T03:12:12.784Z,25.20
2022-12-16T03:14:41.873Z,22.17
2022-12-16T03:19:58.326Z,22.52
2022-12-16T03:22:29.325Z,21.15
2022-12-16T03:24:56.650Z,12.52
2022-12-16T03:27:23.880Z,21.77
2022-12-16T03:30:04.173Z,19.38
2022-12-16T03:32:31.392Z,20.67
2022-12-16T03:37:48.247Z,19.48
2022-12-16T03:40:15.958Z,21.73
2022-12-16T03:42:43.869Z,20.38
2022-12-16T03:45:17.001Z,18.83
2022-12-16T03:47:49.443Z,18.90
2022-12-16T03:50:17.190Z,21.35
2022-12-16T03:52:53.549Z,19.83
2022-12-16T03:55:20.832Z,20.73
2022-12-16T03:57:48.087Z,19.60
2022-12-16T04:00:15.493Z,21.10
2022-12-16T04:02:43.266Z,16.92
2022-12-16T04:05:10.827Z,21.15
2022-12-16T04:10:43.804Z,19.50
2022-12-16T04:13:30.201Z,19.10
2022-12-16T04:16:16.202Z,18.83
2022-12-16T04:19:02.427Z,18.58
2022-12-16T04:21:48.525Z,18.65
2022-12-16T04:27:34.592Z,18.37
2022-12-16T04:30:20.325Z,17.95
2022-12-16T04:33:07.481Z,19.58
2022-12-16T04:35:53.505Z,18.58
2022-12-16T04:38:39.462Z,18.55
2022-12-16T04:44:29.219Z,19.08
2022-12-16T04:47:15.487Z,18.23
2022-12-16T04:50:01.542Z,17.25
2022-12-16T04:52:47.730Z,17.10
2022-12-16T04:55:33.606Z,18.85
2022-12-16T05:01:23.781Z,19.67
2022-12-16T05:04:26.676Z,16.17
2022-12-16T05:07:12.602Z,18.40
2022-12-16T05:09:58.592Z,20.10
2022-12-16T05:12:44.418Z,18.05
2022-12-16T05:15:30.492Z,19.98
2022-12-16T05:18:16.765Z,18.55
2022-12-16T05:21:02.850Z,18.83
2022-12-16T05:23:49.106Z,19.30
2022-12-16T05:26:35.208Z,17.30
2022-12-16T05:29:21.368Z,19.90
2022-12-16T05:35:11.195Z,17.15
2022-12-16T05:37:57.457Z,16.55
2022-12-16T05:40:43.719Z,15.30
2022-12-16T05:43:29.854Z,17.23
2022-12-16T05:46:16.157Z,15.52
2022-12-16T05:49:02.358Z,16.42
2022-12-16T05:51:48.410Z,15.88
2022-12-16T05:54:34.544Z,18.35
2022-12-16T05:57:20.477Z,17.98
2022-12-16T06:00:06.641Z,15.70
2022-12-16T06:02:52.887Z,17.23
2022-12-16T06:05:38.797Z,15.63
2022-12-16T06:08:24.776Z,14.88
2022-12-16T06:11:10.952Z,18.90
2022-12-16T06:13:56.848Z,16.70
2022-12-16T06:16:43.230Z,16.65
2022-12-16T06:19:29.308Z,16.73
2022-12-16T06:22:15.087Z,16.75
2022-12-16T06:25:01.235Z,16.55
2022-12-16T06:27:47.311Z,18.02
2022-12-16T06:30:33.539Z,17.65
2022-12-16T06:33:19.624Z,17.60
2022-12-16T06:36:05.722Z,15.55
2022-12-16T06:38:51.714Z,17.40
2022-12-16T06:41:37.808Z,17.58
2022-12-16T06:44:23.747Z,19.05
2022-12-16T06:47:09.973Z,17.25
2022-12-16T06:49:55.923Z,16.98
2022-12-16T06:52:41.982Z,19.42
2022-12-16T06:55:27.889Z,19.27
2022-12-16T06:58:17.527Z,17.27
2022-12-16T07:01:23.636Z,18.45
2022-12-16T07:04:09.533Z,15.73
2022-12-16T07:06:55.330Z,17.17
2022-12-16T07:09:41.366Z,16.92
2022-12-16T07:12:27.477Z,18.77
2022-12-16T07:15:13.613Z,19.33
2022-12-16T07:18:00.382Z,18.25
2022-12-16T07:20:46.570Z,17.00
2022-12-16T07:23:32.781Z,18.20
2022-12-16T07:26:18.828Z,18.48
2022-12-16T07:29:05.022Z,18.70
2022-12-16T07:31:51.194Z,20.90
2022-12-16T07:34:42.035Z,18.40
2022-12-16T07:37:29.567Z,19.52
2022-12-16T07:40:15.872Z,19.65
2022-12-16T07:43:01.923Z,19.13
2022-12-16T07:45:47.814Z,18.70
2022-12-16T07:48:33.844Z,19.88
2022-12-16T07:51:19.611Z,19.85
2022-12-16T07:54:05.823Z,20.27
2022-12-16T07:56:51.873Z,18.90
2022-12-16T07:59:38.012Z,19.20
2022-12-16T08:02:24.041Z,19.77
2022-12-16T08:05:09.793Z,19.58
2022-12-16T08:07:58.787Z,17.13
2022-12-16T08:10:45.297Z,19.13
2022-12-16T08:13:31.902Z,19.05
2022-12-16T08:16:18.326Z,18.88
2022-12-16T08:19:10.538Z,18.90
2022-12-16T08:21:57.366Z,17.90
2022-12-16T08:24:46.910Z,19.27
2022-12-16T08:27:37.446Z,17.48
2022-12-16T08:30:23.636Z,19.60
2022-12-16T08:33:18.285Z,20.95
2022-12-16T08:36:05.639Z,18.23
2022-12-16T08:38:51.822Z,18.65
2022-12-16T08:41:38.658Z,20.02
2022-12-16T08:44:24.702Z,18.23
2022-12-16T08:47:10.695Z,18.05
2022-12-16T08:49:59.851Z,19.80
2022-12-16T08:52:48.452Z,18.10
2022-12-16T08:55:55.889Z,20.17
2022-12-16T08:58:41.839Z,19.55
2022-12-16T09:01:27.509Z,20.95
2022-12-16T09:04:13.729Z,19.00
2022-12-16T09:06:59.948Z,20.65
2022-12-16T09:09:46.003Z,20.48
2022-12-16T09:12:32.245Z,19.75
2022-12-16T09:15:18.142Z,21.05
2022-12-16T09:18:04.194Z,20.90
2022-12-16T09:20:52.291Z,19.55
2022-12-16T09:23:38.128Z,19.92
2022-12-16T09:26:24.232Z,20.85
2022-12-16T09:29:10.331Z,20.85
2022-12-16T09:31:56.406Z,19.70
2022-12-16T09:34:42.221Z,20.05
2022-12-16T09:37:28.302Z,19.85
2022-12-16T09:40:21.981Z,20.55
2022-12-16T09:43:07.735Z,19.45
2022-12-16T09:45:53.815Z,18.35
2022-12-16T09:48:45.625Z,16.73
2022-12-16T09:51:32.923Z,19.27
2022-12-16T09:54:19.361Z,18.60
2022-12-16T09:57:05.807Z,19.23
2022-12-16T09:59:55.446Z,17.90
2022-12-16T10:02:41.787Z,18.30
2022-12-16T10:05:35.328Z,16.98
2022-12-16T10:08:21.132Z,19.92
2022-12-16T10:11:15.793Z,19.45
2022-12-16T10:14:01.856Z,18.88
2022-12-16T10:17:16.816Z,18.27
2022-12-16T10:20:22.188Z,18.88
2022-12-16T10:23:26.758Z,18.13
2022-12-16T10:26:34.192Z,18.85
2022-12-16T10:29:27.330Z,17.13
2022-12-16T10:32:26.957Z,15.32
2022-12-16T10:35:14.539Z,18.10
2022-12-16T10:38:01.364Z,18.02
2022-12-16T10:40:49.935Z,15.18
2022-12-16T10:43:50.797Z,20.05
2022-12-16T10:46:39.862Z,19.35
2022-12-16T10:49:28.110Z,16.85
2022-12-16T10:52:14.201Z,21.20
2022-12-16T10:55:02.369Z,19.27
2022-12-16T10:58:06.805Z,22.23
2022-12-16T11:01:09.675Z,21.15
2022-12-16T11:03:56.891Z,20.20
2022-12-16T11:06:56.607Z,22.13
2022-12-16T11:09:44.979Z,21.10
2022-12-16T11:12:33.914Z,22.02
2022-12-16T11:15:29.333Z,22.65
2022-12-16T11:18:25.780Z,22.00
2022-12-16T11:21:26.721Z,22.50
2022-12-16T11:27:25.198Z,22.98
2022-12-16T11:30:18.603Z,23.23
2022-12-16T11:33:15.047Z,23.65
2022-12-16T11:36:21.082Z,22.88
2022-12-16T11:39:08.689Z,23.13
2022-12-16T11:41:59.511Z,23.15
2022-12-16T11:44:48.221Z,22.63
2022-12-16T11:47:39.838Z,23.90
2022-12-16T11:50:28.651Z,23.27
2022-12-16T11:53:26.332Z,24.60
2022-12-16T11:56:16.412Z,23.63
2022-12-16T11:59:07.479Z,24.52
2022-12-16T12:04:41.927Z,22.98
2022-12-16T12:07:42.696Z,23.02
2022-12-16T12:10:49.053Z,23.65
2022-12-16T12:13:47.260Z,18.48
2022-12-16T12:16:45.253Z,20.48
2022-12-16T12:19:42.307Z,23.38
2022-12-16T12:22:50.422Z,22.20
2022-12-16T12:25:41.890Z,23.33
2022-12-16T12:28:27.874Z,23.73
2022-12-16T12:31:20.663Z,20.58
2022-12-16T12:34:28.491Z,23.95
2022-12-16T12:37:19.605Z,23.33
2022-12-16T12:40:06.531Z,22.83
2022-12-16T12:43:05.764Z,24.08
2022-12-16T12:46:00.425Z,23.85
2022-12-16T12:49:03.620Z,23.27
2022-12-16T12:52:04.547Z,20.17
2022-12-16T12:57:38.239Z,19.80
2022-12-16T13:00:25.869Z,22.83
2022-12-16T13:03:12.038Z,23.17
2022-12-16T13:05:58.692Z,22.98
2022-12-16T13:09:13.642Z,23.58
2022-12-16T13:12:19.663Z,22.05
2022-12-16T13:15:11.295Z,20.73
2022-12-16T13:18:16.008Z,22.23
2022-12-16T13:21:02.027Z,21.58
2022-12-16T13:23:48.323Z,21.08
2022-12-16T13:26:35.470Z,20.42
2022-12-16T13:29:40.171Z,21.10
2022-12-16T13:32:26.094Z,21.15
2022-12-16T13:35:29.638Z,21.40
2022-12-16T13:38:39.198Z,20.77
2022-12-16T13:41:46.754Z,21.50
2022-12-16T13:44:52.366Z,19.45
2022-12-16T13:47:59.639Z,22.50
2022-12-16T13:51:05.681Z,22.70
2022-12-16T13:54:02.329Z,21.50
2022-12-16T13:56:55.549Z,24.00
2022-12-16T13:59:44.923Z,22.13
2022-12-16T14:02:31.308Z,21.83
2022-12-16T14:05:17.320Z,20.13
2022-12-16T14:08:03.594Z,20.92
2022-12-16T14:10:55.364Z,23.90
2022-12-16T14:13:52.211Z,21.48
2022-12-16T14:16:52.156Z,21.95
2022-12-16T14:20:02.372Z,22.63
2022-12-16T14:23:09.304Z,22.00
2022-12-16T14:25:55.215Z,21.23
2022-12-16T14:28:53.568Z,24.33
2022-12-16T14:31:52.194Z,27.55
2022-12-16T14:34:46.016Z,24.67
2022-12-16T14:37:35.306Z,24.77
2022-12-16T14:40:22.102Z,24.02
2022-12-16T14:43:13.186Z,24.13
2022-12-16T14:46:08.188Z,23.90
2022-12-16T14:48:57.838Z,23.17
2022-12-16T14:51:43.393Z,24.52
2022-12-16T14:54:41.418Z,24.00
2022-12-16T14:57:41.732Z,24.58
2022-12-16T15:00:27.321Z,25.25
2022-12-16T15:03:14.866Z,26.02
2022-12-16T15:06:02.069Z,25.63
2022-12-16T15:08:50.713Z,24.70
2022-12-16T15:11:39.735Z,24.20
2022-12-16T15:14:28.483Z,24.83
2022-12-16T15:17:14.681Z,27.33
2022-12-16T15:20:10.450Z,26.38
2022-12-16T15:22:56.742Z,24.88
2022-12-16T15:25:45.128Z,24.70
2022-12-16T15:28:53.562Z,26.70
2022-12-16T15:31:45.268Z,25.23
2022-12-16T15:35:10.918Z,24.95
2022-12-16T15:38:04.310Z,26.83
2022-12-16T15:40:52.361Z,27.25
2022-12-16T15:43:54.844Z,28.50
2022-12-16T15:46:46.243Z,27.17
2022-12-16T15:49:48.660Z,27.73
2022-12-16T15:52:49.003Z,27.05
2022-12-16T15:56:31.277Z,25.90
2022-12-16T15:59:42.500Z,28.02
2022-12-16T16:02:36.886Z,26.60
2022-12-16T16:05:33.651Z,26.75
2022-12-16T16:08:19.358Z,26.55
2022-12-16T16:11:05.133Z,28.38
2022-12-16T16:13:50.734Z,28.35
2022-12-16T16:16:36.377Z,27.15
2022-12-16T16:19:22.553Z,27.65
2022-12-16T16:22:08.085Z,28.58
2022-12-16T16:24:53.633Z,28.80
2022-12-16T16:27:39.333Z,27.63
2022-12-16T16:30:25.622Z,26.88
2022-12-16T16:33:10.864Z,27.55
2022-12-16T16:35:56.311Z,27.45
2022-12-16T16:38:41.883Z,27.70
2022-12-16T16:41:33.859Z,26.92
2022-12-16T16:44:20.279Z,27.38
2022-12-16T16:47:06.362Z,29.13
2022-12-16T16:49:59.736Z,27.00
2022-12-16T16:52:46.570Z,27.05
2022-12-16T16:55:37.816Z,27.63
2022-12-16T16:58:26.322Z,27.67
2022-12-16T17:01:12.159Z,26.00
2022-12-16T17:03:57.589Z,27.30
2022-12-16T17:06:43.375Z,25.27
2022-12-16T17:09:29.014Z,25.55
2022-12-16T17:12:14.450Z,26.90
2022-12-16T17:15:10.703Z,27.25
2022-12-16T17:17:56.295Z,28.83
2022-12-16T17:20:42.039Z,28.70
2022-12-16T17:23:27.614Z,26.67
2022-12-16T17:26:13.183Z,28.67
2022-12-16T17:28:58.653Z,26.58
2022-12-16T17:31:44.256Z,27.17
2022-12-16T17:34:29.893Z,26.35
2022-12-16T17:37:15.213Z,28.05
2022-12-16T17:40:00.927Z,27.60
2022-12-16T17:42:46.877Z,26.60
2022-12-16T17:45:32.426Z,25.80
2022-12-16T17:48:18.137Z,27.20
2022-12-16T17:51:03.702Z,26.10
2022-12-16T17:53:57.079Z,25.85
2022-12-16T17:56:44.112Z,28.45
2022-12-16T17:59:29.829Z,26.35
2022-12-16T18:02:15.542Z,28.92
2022-12-16T18:05:01.305Z,26.77
2022-12-16T18:07:46.924Z,27.27
2022-12-16T18:10:32.387Z,26.58
2022-12-16T18:13:18.174Z,27.13
2022-12-16T18:16:10.869Z,24.00
2022-12-16T18:18:56.331Z,28.38
2022-12-16T18:21:41.950Z,27.77
2022-12-16T18:24:28.059Z,26.67
2022-12-16T18:27:13.313Z,28.05
2022-12-16T18:29:58.860Z,29.75
2022-12-16T18:32:44.245Z,28.00
2022-12-16T18:35:30.987Z,27.80
2022-12-16T18:38:16.854Z,28.15
2022-12-16T18:41:02.207Z,29.70
2022-12-16T18:43:47.916Z,28.27
2022-12-16T18:46:33.104Z,28.98
2022-12-16T18:49:18.691Z,27.15
2022-12-16T18:52:04.232Z,29.20
2022-12-16T18:54:49.997Z,28.77
2022-12-16T18:57:39.625Z,29.23
2022-12-16T19:00:26.306Z,29.08
2022-12-16T19:03:22.524Z,30.35
2022-12-16T19:06:14.809Z,29.85
2022-12-16T19:09:00.531Z,27.77
2022-12-16T19:11:46.660Z,28.50
2022-12-16T19:14:32.206Z,27.30
2022-12-16T19:17:17.796Z,25.58
2022-12-16T19:20:03.479Z,26.27
2022-12-16T19:22:49.041Z,25.95
2022-12-16T19:25:34.645Z,27.30
2022-12-16T19:28:20.256Z,26.15
2022-12-16T19:31:15.486Z,27.00
2022-12-16T19:34:04.756Z,29.27
2022-12-16T19:36:50.469Z,26.50
2022-12-16T19:39:35.895Z,28.20
2022-12-16T19:42:21.548Z,28.90
2022-12-16T19:45:07.102Z,29.52
2022-12-16T19:47:52.764Z,29.35
2022-12-16T19:50:38.889Z,29.13
2022-12-16T19:53:24.202Z,27.65
2022-12-16T19:56:19.670Z,27.15
2022-12-16T19:59:05.172Z,28.45
2022-12-16T20:01:50.819Z,29.08
2022-12-16T20:04:37.202Z,28.42
2022-12-16T20:07:23.399Z,28.00
2022-12-16T20:10:09.159Z,29.17
2022-12-16T20:12:56.178Z,25.83
2022-12-16T20:15:41.984Z,25.77
2022-12-16T20:18:38.156Z,27.23
2022-12-16T20:21:23.793Z,27.38
2022-12-16T20:24:09.284Z,27.80
2022-12-16T20:26:55.316Z,26.42
2022-12-16T20:29:40.783Z,25.50
2022-12-16T20:32:26.371Z,27.33
2022-12-16T20:35:11.904Z,25.75
2022-12-16T20:37:57.382Z,26.25
2022-12-16T20:40:43.062Z,23.85
2022-12-16T20:43:30.994Z,25.13
2022-12-16T20:46:16.780Z,22.83
2022-12-16T20:49:02.335Z,24.98
2022-12-16T20:51:47.805Z,31.30
2022-12-16T20:54:33.479Z,26.30
2022-12-16T20:57:19.125Z,26.05
2022-12-16T21:00:04.530Z,27.02
2022-12-16T21:02:50.209Z,26.95
2022-12-16T21:05:35.824Z,25.30
2022-12-16T21:08:21.545Z,26.55
2022-12-16T21:11:07.591Z,26.80
2022-12-16T21:14:42.849Z,28.52
2022-12-16T21:16:58.555Z,28.92
2022-12-16T21:19:44.202Z,29.45
2022-12-16T21:22:29.612Z,27.75
2022-12-16T21:25:16.728Z,28.23
2022-12-16T21:28:05.379Z,21.38
2022-12-16T21:30:51.064Z,28.58
2022-12-16T21:33:38.837Z,28.10
2022-12-16T21:36:25.188Z,25.88
2022-12-16T21:39:10.750Z,29.40
2022-12-16T21:41:56.349Z,28.65
2022-12-16T21:44:41.936Z,27.13
2022-12-16T21:47:27.462Z,27.55
2022-12-16T21:50:20.858Z,24.25
2022-12-16T21:53:07.084Z,21.08
2022-12-16T21:55:52.754Z,23.55
2022-12-16T21:58:39.018Z,21.50
2022-12-16T22:01:24.814Z,19.02
2022-12-16T22:04:10.378Z,20.75
2022-12-16T22:06:56.062Z,20.98
2022-12-16T22:09:41.528Z,20.00
2022-12-16T22:12:27.080Z,19.63
2022-12-16T22:15:12.805Z,18.67
2022-12-16T22:17:58.916Z,19.48
2022-12-16T22:20:45.233Z,20.35
2022-12-16T22:23:30.971Z,18.13
2022-12-16T22:26:18.046Z,20.50
2022-12-16T22:29:03.685Z,20.05
2022-12-16T22:31:49.291Z,21.58
2022-12-16T22:34:34.605Z,19.77
2022-12-16T22:37:20.116Z,19.75
2022-12-16T22:40:05.690Z,20.98
2022-12-16T22:42:51.072Z,20.67
2022-12-16T22:45:40.400Z,19.67
2022-12-16T22:48:25.958Z,19.98
2022-12-16T22:51:11.722Z,20.00
2022-12-16T22:53:57.374Z,17.42
2022-12-16T22:56:42.937Z,18.73
2022-12-16T22:59:28.702Z,18.58
2022-12-16T23:02:14.268Z,18.10
2022-12-16T23:04:59.915Z,17.33
2022-12-16T23:07:45.459Z,16.33
2022-12-16T23:10:30.966Z,19.52
2022-12-16T23:13:16.695Z,18.98
2022-12-16T23:16:02.343Z,17.02
2022-12-16T23:18:48.705Z,16.83
2022-12-16T23:21:38.390Z,16.30
2022-12-16T23:24:24.385Z,15.95
2022-12-16T23:27:10.062Z,14.90
2022-12-16T23:29:56.652Z,13.95
2022-12-16T23:32:42.855Z,14.20
2022-12-16T23:35:28.368Z,15.35
2022-12-16T23:38:25.109Z,16.02
2022-12-16T23:41:17.376Z,17.63
2022-12-16T23:44:03.646Z,17.10
2022-12-16T23:46:49.179Z,18.17
2022-12-16T23:49:34.848Z,17.67
2022-12-16T23:52:20.471Z,17.45
2022-12-16T23:55:05.963Z,18.58
2022-12-16T23:57:51.658Z,18.33
